createdAt,value
2017-10-21T00:02:25.379Z,4.97
2017-10-21T00:04:51.700Z,3.80
2017-10-21T00:07:18.151Z,11.00
2017-10-21T00:09:44.619Z,4.27
2017-10-21T00:12:11.009Z,5.73
2017-10-21T00:14:37.444Z,7.47
2017-10-21T00:17:03.784Z,5.07
2017-10-21T00:19:30.141Z,5.53
2017-10-21T00:21:57.227Z,2.53
2017-10-21T00:24:23.585Z,5.13
2017-10-21T00:26:49.929Z,5.10
2017-10-21T00:29:16.314Z,4.20
2017-10-21T00:31:42.636Z,2.73
2017-10-21T00:34:09.767Z,7.30
2017-10-21T00:36:36.237Z,4.20
2017-10-21T00:39:02.651Z,3.43
2017-10-21T00:41:29.917Z,2.90
2017-10-21T00:43:56.323Z,3.90
2017-10-21T00:46:22.704Z,4.53
2017-10-21T00:48:49.121Z,9.33
2017-10-21T00:51:15.584Z,3.90
2017-10-21T00:53:42.084Z,10.47
2017-10-21T00:56:08.444Z,6.37
2017-10-21T00:58:34.795Z,4.30
2017-10-21T01:01:01.126Z,3.10
2017-10-21T01:03:27.540Z,4.40
2017-10-21T01:05:53.881Z,4.30
2017-10-21T01:08:20.282Z,4.40
2017-10-21T01:10:46.621Z,6.80
2017-10-21T01:13:12.959Z,3.30
2017-10-21T01:15:39.265Z,7.03
2017-10-21T01:18:06.330Z,7.90
2017-10-21T01:20:32.789Z,4.53
2017-10-21T01:22:59.197Z,6.60
2017-10-21T01:25:25.526Z,4.47
2017-10-21T01:27:51.919Z,9.53
2017-10-21T01:30:18.278Z,3.13
2017-10-21T01:32:45.371Z,5.77
2017-10-21T01:35:11.895Z,3.93
2017-10-21T01:37:38.233Z,5.40
2017-10-21T01:40:04.628Z,3.93
2017-10-21T01:42:30.954Z,3.17
2017-10-21T01:44:57.467Z,2.57
2017-10-21T01:47:23.865Z,4.47
2017-10-21T01:49:50.221Z,3.43
2017-10-21T01:52:16.636Z,8.77
2017-10-21T01:54:43.072Z,4.03
2017-10-21T01:57:09.430Z,2.77
2017-10-21T01:59:36.580Z,7.53
2017-10-21T02:02:03.936Z,4.63
2017-10-21T02:04:30.383Z,7.27
2017-10-21T02:06:57.502Z,4.13
2017-10-21T02:09:23.864Z,4.57
2017-10-21T02:11:50.939Z,10.23
2017-10-21T02:14:17.331Z,3.60
2017-10-21T02:16:43.786Z,4.30
2017-10-21T02:19:10.887Z,3.70
2017-10-21T02:21:37.329Z,5.73
2017-10-21T02:24:04.441Z,10.97
2017-10-21T02:26:30.802Z,5.00
2017-10-21T02:28:57.902Z,6.97
2017-10-21T02:31:24.254Z,15.93
2017-10-21T02:33:50.658Z,4.20
2017-10-21T02:36:17.773Z,2.77
2017-10-21T02:38:44.154Z,4.83
2017-10-21T02:41:11.248Z,4.00
2017-10-21T02:43:37.638Z,4.43
2017-10-21T02:46:03.953Z,4.53
2017-10-21T02:48:31.055Z,7.97
2017-10-21T02:50:57.449Z,5.20
2017-10-21T02:53:23.812Z,11.73
2017-10-21T02:55:50.155Z,6.50
2017-10-21T02:58:16.465Z,4.73
2017-10-21T03:00:42.845Z,6.43
2017-10-21T03:03:10.012Z,7.90
2017-10-21T03:05:37.088Z,6.60
2017-10-21T03:08:03.533Z,3.17
2017-10-21T03:10:29.945Z,3.33
2017-10-21T03:12:56.275Z,6.20
2017-10-21T03:15:22.610Z,4.90
2017-10-21T03:17:48.963Z,4.80
2017-10-21T03:20:15.357Z,5.57
2017-10-21T03:22:41.735Z,4.80
2017-10-21T03:25:08.165Z,9.37
2017-10-21T03:27:34.486Z,6.50
2017-10-21T03:30:00.856Z,9.97
2017-10-21T03:32:27.190Z,3.83
2017-10-21T03:34:53.514Z,4.30
2017-10-21T03:37:19.869Z,7.13
2017-10-21T03:39:47.001Z,17.53
2017-10-21T03:42:13.386Z,4.53
2017-10-21T03:44:39.873Z,6.53
2017-10-21T03:47:06.166Z,4.73
2017-10-21T03:49:32.578Z,11.70
2017-10-21T03:51:59.033Z,5.47
2017-10-21T03:54:25.344Z,6.83
2017-10-21T03:56:51.743Z,10.47
2017-10-21T03:59:19.654Z,2.50
2017-10-21T04:01:46.064Z,5.23
2017-10-21T04:04:13.199Z,10.80
2017-10-21T04:06:40.475Z,3.83
2017-10-21T04:09:06.801Z,9.60
2017-10-21T04:11:33.149Z,9.10
2017-10-21T04:13:59.567Z,12.40
2017-10-21T04:16:26.668Z,4.20
2017-10-21T04:18:53.141Z,6.40
2017-10-21T04:21:20.312Z,6.27
2017-10-21T04:23:46.743Z,2.30
2017-10-21T04:26:13.158Z,11.83
2017-10-21T04:28:40.240Z,3.10
2017-10-21T04:31:06.563Z,4.93
2017-10-21T04:33:33.060Z,4.90
2017-10-21T04:35:59.367Z,2.57
2017-10-21T04:38:25.668Z,6.53
2017-10-21T04:40:51.989Z,11.40
2017-10-21T04:43:18.344Z,7.47
2017-10-21T04:45:44.659Z,7.97
2017-10-21T04:48:11.022Z,3.20
2017-10-21T04:50:37.324Z,2.60
2017-10-21T04:53:03.630Z,4.10
2017-10-21T04:55:29.991Z,6.47
2017-10-21T04:57:56.420Z,3.57
2017-10-21T05:00:22.754Z,8.80
2017-10-21T05:02:49.145Z,8.97
2017-10-21T05:05:16.291Z,7.93
2017-10-21T05:07:42.635Z,7.63
2017-10-21T05:10:09.781Z,5.70
2017-10-21T05:12:36.202Z,5.63
2017-10-21T05:15:02.547Z,4.60
2017-10-21T05:17:29.636Z,3.23
2017-10-21T05:19:55.963Z,3.53
2017-10-21T05:22:22.300Z,5.90
2017-10-21T05:24:48.625Z,4.60
2017-10-21T05:27:15.119Z,5.43
2017-10-21T05:29:42.142Z,9.90
2017-10-21T05:32:08.477Z,5.80
2017-10-21T05:34:34.783Z,9.13
2017-10-21T05:37:01.166Z,3.93
2017-10-21T05:39:28.240Z,8.23
2017-10-21T05:41:54.580Z,7.07
2017-10-21T05:44:20.981Z,7.33
2017-10-21T05:46:48.066Z,12.00
2017-10-21T05:49:14.463Z,9.90
2017-10-21T05:51:40.836Z,7.73
2017-10-21T05:54:07.262Z,5.00
2017-10-21T05:56:33.650Z,4.90
2017-10-21T05:59:00.756Z,9.40
2017-10-21T06:01:27.169Z,10.50
2017-10-21T06:03:53.565Z,18.47
2017-10-21T06:06:19.947Z,11.03
2017-10-21T06:08:46.345Z,8.80
2017-10-21T06:11:12.817Z,9.00
2017-10-21T06:13:39.386Z,9.50
2017-10-21T06:16:05.909Z,15.33
2017-10-21T06:18:32.545Z,5.53
2017-10-21T06:20:59.121Z,7.30
2017-10-21T06:23:26.317Z,9.83
2017-10-21T06:25:52.814Z,11.17
2017-10-21T06:28:19.974Z,11.27
2017-10-21T06:30:46.468Z,10.80
2017-10-21T06:33:12.915Z,8.17
2017-10-21T06:35:39.249Z,7.03
2017-10-21T06:38:06.331Z,6.20
2017-10-21T06:40:32.746Z,10.50
2017-10-21T06:42:59.116Z,9.57
2017-10-21T06:45:25.563Z,12.77
2017-10-21T06:47:51.962Z,6.60
2017-10-21T06:50:18.266Z,22.50
2017-10-21T06:52:45.360Z,12.17
2017-10-21T06:55:11.716Z,6.03
2017-10-21T06:57:38.057Z,8.13
2017-10-21T07:00:04.545Z,9.20
2017-10-21T07:02:30.852Z,4.63
2017-10-21T07:04:57.913Z,9.00
2017-10-21T07:07:24.266Z,10.97
2017-10-21T07:09:50.659Z,9.30
2017-10-21T07:12:17.743Z,7.47
2017-10-21T07:14:44.048Z,6.80
2017-10-21T07:17:11.069Z,16.83
2017-10-21T07:19:37.342Z,6.17
2017-10-21T07:22:03.752Z,11.47
2017-10-21T07:24:30.190Z,6.57
2017-10-21T07:26:57.340Z,6.43
2017-10-21T07:29:24.111Z,8.30
2017-10-21T07:31:50.736Z,9.27
2017-10-21T07:34:17.090Z,5.43
2017-10-21T07:36:43.453Z,6.30
2017-10-21T07:39:09.738Z,5.77
2017-10-21T07:41:36.145Z,8.10
2017-10-21T07:44:03.233Z,7.77
2017-10-21T07:46:29.530Z,13.37
2017-10-21T07:48:56.650Z,5.30
2017-10-21T07:51:23.049Z,6.50
2017-10-21T07:53:49.428Z,12.37
2017-10-21T07:56:16.765Z,13.63
2017-10-21T07:58:43.093Z,7.40
2017-10-21T08:01:09.416Z,5.43
2017-10-21T08:03:35.749Z,6.40
2017-10-21T08:06:02.906Z,17.27
2017-10-21T08:08:29.223Z,4.43
2017-10-21T08:10:56.233Z,8.63
2017-10-21T08:13:22.545Z,6.80
2017-10-21T08:15:49.591Z,8.50
2017-10-21T08:18:16.791Z,5.43
2017-10-21T08:20:43.181Z,9.60
2017-10-21T08:23:10.535Z,8.53
2017-10-21T08:25:37.548Z,7.33
2017-10-21T08:28:04.601Z,10.27
2017-10-21T08:30:30.991Z,10.50
2017-10-21T08:32:57.371Z,8.70
2017-10-21T08:35:23.747Z,7.17
2017-10-21T08:37:50.117Z,10.53
2017-10-21T08:40:16.497Z,9.73
2017-10-21T08:42:50.779Z,8.23
2017-10-21T08:45:17.953Z,4.60
2017-10-21T08:47:45.169Z,9.73
2017-10-21T08:50:11.504Z,6.10
2017-10-21T08:52:37.949Z,8.33
2017-10-21T08:55:05.259Z,10.93
2017-10-21T08:57:31.640Z,22.03
2017-10-21T08:59:57.922Z,5.30
2017-10-21T09:02:24.241Z,4.33
2017-10-21T09:04:50.529Z,9.20
2017-10-21T09:07:16.887Z,8.33
2017-10-21T09:09:43.327Z,12.73
2017-10-21T09:12:09.750Z,10.30
2017-10-21T09:14:36.797Z,10.20
2017-10-21T09:17:03.111Z,12.30
2017-10-21T09:19:29.443Z,11.37
2017-10-21T09:21:55.719Z,11.20
2017-10-21T09:24:22.074Z,9.57
2017-10-21T09:26:48.402Z,7.97
2017-10-21T09:29:14.753Z,8.83
2017-10-21T09:31:41.088Z,7.87
2017-10-21T09:34:07.422Z,14.53
2017-10-21T09:36:33.754Z,9.27
2017-10-21T09:39:00.082Z,10.77
2017-10-21T09:41:26.434Z,10.90
2017-10-21T09:43:53.684Z,9.47
2017-10-21T09:46:20.098Z,12.97
2017-10-21T09:48:46.450Z,15.63
2017-10-21T09:51:13.628Z,9.10
2017-10-21T09:53:40.024Z,5.73
2017-10-21T09:56:06.417Z,15.40
2017-10-21T09:58:32.747Z,10.30
2017-10-21T10:00:59.108Z,9.63
2017-10-21T10:03:25.520Z,8.90
2017-10-21T10:05:52.554Z,9.00
2017-10-21T10:08:18.860Z,8.93
2017-10-21T10:10:45.217Z,16.20
2017-10-21T10:13:11.564Z,8.37
2017-10-21T10:15:37.952Z,10.60
2017-10-21T10:18:04.309Z,9.00
2017-10-21T10:20:30.690Z,8.90
2017-10-21T10:22:57.045Z,8.00
2017-10-21T10:25:24.139Z,13.90
2017-10-21T10:27:50.597Z,9.07
2017-10-21T10:30:16.959Z,5.67
2017-10-21T10:32:44.036Z,10.70
2017-10-21T10:35:10.324Z,5.90
2017-10-21T10:37:37.442Z,16.80
2017-10-21T10:40:03.750Z,10.13
2017-10-21T10:42:30.270Z,7.53
2017-10-21T10:44:56.589Z,7.70
2017-10-21T10:47:23.010Z,8.83
2017-10-21T10:49:50.201Z,6.80
2017-10-21T10:52:16.612Z,12.47
2017-10-21T10:54:43.165Z,12.00
2017-10-21T10:57:09.545Z,11.80
2017-10-21T10:59:36.050Z,5.70
2017-10-21T11:02:02.371Z,13.57
2017-10-21T11:04:28.671Z,14.43
2017-10-21T11:06:55.798Z,14.37
2017-10-21T11:09:22.995Z,8.20
2017-10-21T11:11:49.303Z,14.43
2017-10-21T11:14:16.395Z,6.80
2017-10-21T11:16:42.721Z,13.87
2017-10-21T11:19:09.898Z,12.27
2017-10-21T11:21:36.250Z,18.23
2017-10-21T11:24:02.565Z,8.83
2017-10-21T11:26:29.584Z,11.10
2017-10-21T11:28:55.880Z,11.37
2017-10-21T11:31:23.045Z,10.23
2017-10-21T11:33:49.398Z,12.93
2017-10-21T11:36:15.816Z,11.60
2017-10-21T11:38:42.138Z,10.30
2017-10-21T11:41:08.528Z,8.57
2017-10-21T11:43:34.894Z,9.50
2017-10-21T11:46:01.197Z,11.60
2017-10-21T11:48:28.281Z,8.30
2017-10-21T11:50:54.674Z,12.50
2017-10-21T11:53:21.046Z,3.80
2017-10-21T11:55:48.214Z,9.43
2017-10-21T11:58:14.565Z,8.03
2017-10-21T12:00:41.706Z,11.37
2017-10-21T12:03:08.043Z,9.40
2017-10-21T12:05:34.479Z,7.30
2017-10-21T12:08:00.870Z,11.53
2017-10-21T12:10:28.164Z,8.70
2017-10-21T12:12:54.491Z,7.40
2017-10-21T12:15:20.853Z,9.10
2017-10-21T12:17:47.144Z,6.83
2017-10-21T12:20:13.736Z,5.73
2017-10-21T12:22:40.791Z,8.07
2017-10-21T12:25:07.910Z,6.53
2017-10-21T12:27:34.244Z,9.20
2017-10-21T12:30:00.695Z,7.70
2017-10-21T12:32:27.925Z,10.20
2017-10-21T12:34:54.220Z,6.80
2017-10-21T12:37:21.042Z,4.87
2017-10-21T12:39:47.337Z,11.17
2017-10-21T12:42:13.709Z,12.20
2017-10-21T12:44:39.966Z,11.70
2017-10-21T12:47:06.290Z,7.03
2017-10-21T12:49:32.669Z,10.40
2017-10-21T12:51:58.938Z,14.07
2017-10-21T12:54:25.271Z,19.33
2017-10-21T12:56:51.611Z,6.63
2017-10-21T12:59:18.121Z,8.37
2017-10-21T13:01:44.483Z,12.93
2017-10-21T13:04:11.775Z,12.60
2017-10-21T13:06:38.191Z,17.03
2017-10-21T13:09:04.517Z,10.57
2017-10-21T13:11:30.908Z,12.20
2017-10-21T13:13:57.263Z,16.33
2017-10-21T13:16:23.654Z,15.27
2017-10-21T13:18:50.722Z,15.47
2017-10-21T13:21:17.174Z,16.17
2017-10-21T13:23:43.684Z,14.27
2017-10-21T13:26:10.803Z,16.13
2017-10-21T13:28:37.104Z,16.93
2017-10-21T13:31:03.439Z,16.00
2017-10-21T13:33:29.750Z,14.10
2017-10-21T13:35:56.082Z,11.60
2017-10-21T13:38:22.494Z,20.63
2017-10-21T13:40:48.880Z,11.20
2017-10-21T13:43:15.266Z,22.07
2017-10-21T13:45:41.591Z,15.83
2017-10-21T13:48:07.981Z,16.27
2017-10-21T13:50:35.307Z,21.27
2017-10-21T13:53:02.492Z,20.63
2017-10-21T13:55:28.918Z,21.27
2017-10-21T13:57:55.271Z,16.87
2017-10-21T14:00:21.594Z,17.60
2017-10-21T14:02:47.965Z,17.07
2017-10-21T14:05:14.290Z,17.13
2017-10-21T14:07:40.722Z,16.93
2017-10-21T14:10:07.129Z,22.43
2017-10-21T14:12:33.467Z,18.27
2017-10-21T14:15:00.555Z,16.43
2017-10-21T14:17:27.941Z,15.77
2017-10-21T14:19:54.314Z,23.90
2017-10-21T14:22:21.449Z,24.37
2017-10-21T14:24:48.629Z,19.13
2017-10-21T14:27:15.072Z,23.93
2017-10-21T14:29:41.418Z,18.57
2017-10-21T14:32:07.894Z,23.20
2017-10-21T14:34:34.262Z,20.70
2017-10-21T14:37:00.585Z,25.03
2017-10-21T14:39:27.663Z,17.50
2017-10-21T14:41:53.979Z,26.83
2017-10-21T14:44:20.341Z,24.40
2017-10-21T14:46:46.729Z,22.43
2017-10-21T14:49:13.071Z,24.63
2017-10-21T14:51:39.579Z,21.13
2017-10-21T14:54:06.616Z,26.53
2017-10-21T14:56:33.633Z,20.97
2017-10-21T14:59:00.054Z,26.63
2017-10-21T15:01:26.463Z,31.43
2017-10-21T15:03:52.874Z,26.40
2017-10-21T15:06:20.017Z,26.13
2017-10-21T15:08:46.440Z,27.03
2017-10-21T15:11:12.882Z,24.07
2017-10-21T15:13:39.311Z,27.50
2017-10-21T15:16:05.662Z,26.53
2017-10-21T15:18:32.729Z,27.00
2017-10-21T15:20:59.058Z,27.83
2017-10-21T15:23:26.211Z,38.23
2017-10-21T15:25:52.516Z,31.90
2017-10-21T15:28:18.885Z,25.33
2017-10-21T15:30:45.193Z,36.37
2017-10-21T15:33:12.223Z,31.73
2017-10-21T15:35:38.535Z,32.40
2017-10-21T15:38:04.893Z,31.70
2017-10-21T15:40:31.903Z,33.03
2017-10-21T15:42:58.265Z,29.60
2017-10-21T15:45:25.039Z,35.67
2017-10-21T15:47:51.448Z,29.50
2017-10-21T15:50:18.525Z,31.30
2017-10-21T15:52:44.837Z,30.93
2017-10-21T15:55:11.934Z,32.43
2017-10-21T15:57:38.673Z,31.10
2017-10-21T16:00:05.092Z,29.33
2017-10-21T16:02:31.800Z,35.63
2017-10-21T16:04:58.861Z,32.67
2017-10-21T16:07:26.100Z,31.00
2017-10-21T16:09:53.137Z,28.87
2017-10-21T16:12:19.446Z,31.00
2017-10-21T16:14:45.975Z,39.20
2017-10-21T16:17:12.352Z,26.90
2017-10-21T16:19:39.483Z,30.80
2017-10-21T16:22:06.585Z,35.30
2017-10-21T16:24:32.942Z,36.73
2017-10-21T16:26:59.365Z,30.03
2017-10-21T16:29:25.729Z,32.07
2017-10-21T16:31:52.871Z,37.33
2017-10-21T16:34:19.308Z,38.83
2017-10-21T16:36:45.689Z,35.00
2017-10-21T16:41:45.277Z,34.87
2017-10-21T16:44:12.313Z,36.90
2017-10-21T16:46:38.646Z,34.10
2017-10-21T16:49:06.490Z,40.30
2017-10-21T16:51:33.105Z,36.70
2017-10-21T16:53:59.655Z,34.27
2017-10-21T16:56:26.042Z,42.50
2017-10-21T16:58:53.608Z,34.17
2017-10-21T17:01:19.927Z,36.53
2017-10-21T17:03:46.296Z,39.73
2017-10-21T17:06:12.656Z,40.73
2017-10-21T17:08:39.907Z,44.90
2017-10-21T17:11:06.519Z,39.77
2017-10-21T17:13:32.905Z,42.47
2017-10-21T17:16:00.093Z,53.40
2017-10-21T17:18:26.589Z,38.83
2017-10-21T17:20:53.744Z,40.53
2017-10-21T17:23:20.121Z,36.03
2017-10-21T17:25:46.855Z,35.20
2017-10-21T17:28:13.245Z,43.93
2017-10-21T17:30:40.425Z,47.83
2017-10-21T17:33:06.773Z,44.53
2017-10-21T17:35:33.156Z,43.70
2017-10-21T17:37:59.537Z,36.10
2017-10-21T17:40:25.955Z,52.43
2017-10-21T17:42:52.262Z,47.27
2017-10-21T17:45:19.286Z,40.60
2017-10-21T17:47:46.386Z,43.17
2017-10-21T17:50:12.686Z,37.67
2017-10-21T17:52:39.796Z,44.50
2017-10-21T17:55:06.357Z,38.63
2017-10-21T17:57:32.764Z,42.80
2017-10-21T17:59:59.111Z,45.20
2017-10-21T18:02:25.432Z,44.50
2017-10-21T18:04:51.743Z,45.23
2017-10-21T18:07:18.035Z,44.97
2017-10-21T18:09:45.354Z,43.77
2017-10-21T18:12:11.816Z,50.43
2017-10-21T18:14:38.107Z,34.17
2017-10-21T18:17:04.440Z,38.33
2017-10-21T18:19:30.860Z,46.47
2017-10-21T18:21:57.184Z,46.93
2017-10-21T18:24:23.575Z,48.60
2017-10-21T18:26:50.675Z,44.77
2017-10-21T18:29:17.124Z,50.67
2017-10-21T18:31:43.483Z,50.40
2017-10-21T18:34:09.943Z,48.20
2017-10-21T18:36:36.312Z,42.37
2017-10-21T18:39:02.763Z,39.60
2017-10-21T18:41:29.219Z,50.57
2017-10-21T18:43:55.625Z,45.87
2017-10-21T18:46:22.002Z,45.80
2017-10-21T18:48:48.465Z,44.70
2017-10-21T18:51:14.942Z,38.93
2017-10-21T18:53:41.544Z,46.50
2017-10-21T18:56:08.782Z,47.83
2017-10-21T18:58:35.205Z,52.70
2017-10-21T19:01:01.620Z,39.13
2017-10-21T19:03:28.818Z,47.43
2017-10-21T19:05:55.259Z,37.70
2017-10-21T19:08:21.700Z,46.70
2017-10-21T19:10:48.871Z,50.83
2017-10-21T19:13:15.203Z,40.63
2017-10-21T19:15:41.643Z,44.70
2017-10-21T19:18:08.049Z,59.80
2017-10-21T19:20:34.348Z,42.30
2017-10-21T19:23:00.845Z,46.60
2017-10-21T19:25:28.427Z,58.73
2017-10-21T19:27:54.821Z,40.50
2017-10-21T19:30:21.327Z,48.27
2017-10-21T19:32:47.735Z,47.20
2017-10-21T19:35:14.243Z,51.30
2017-10-21T19:37:41.331Z,46.53
2017-10-21T19:40:07.745Z,41.63
2017-10-21T19:42:34.855Z,48.60
2017-10-21T19:45:01.219Z,43.80
2017-10-21T19:47:28.401Z,44.00
2017-10-21T19:49:54.736Z,47.40
2017-10-21T19:52:21.143Z,53.43
2017-10-21T19:54:47.527Z,56.37
2017-10-21T19:57:14.072Z,46.07
2017-10-21T19:59:40.478Z,51.23
2017-10-21T20:02:06.881Z,50.70
2017-10-21T20:04:33.231Z,43.73
2017-10-21T20:06:59.672Z,52.60
2017-10-21T20:09:26.123Z,48.90
2017-10-21T20:11:52.483Z,44.70
2017-10-21T20:14:19.657Z,48.87
2017-10-21T20:16:47.679Z,46.40
2017-10-21T20:19:14.019Z,46.33
2017-10-21T20:21:40.356Z,42.30
2017-10-21T20:24:07.462Z,52.17
2017-10-21T20:26:34.129Z,45.00
2017-10-21T20:29:00.623Z,44.63
2017-10-21T20:31:26.981Z,46.90
2017-10-21T20:33:53.580Z,44.70
2017-10-21T20:36:20.079Z,56.00
2017-10-21T20:38:47.600Z,70.27
2017-10-21T20:41:14.000Z,77.57
2017-10-21T20:43:41.382Z,60.83
2017-10-21T20:46:07.769Z,52.23
2017-10-21T20:48:35.039Z,56.87
2017-10-21T20:51:02.317Z,55.50
2017-10-21T20:53:28.798Z,54.17
2017-10-21T20:55:55.243Z,49.80
2017-10-21T20:58:21.563Z,47.27
2017-10-21T21:00:48.035Z,58.43
2017-10-21T21:03:15.182Z,55.87
2017-10-21T21:05:42.291Z,51.50
2017-10-21T21:08:08.700Z,62.40
2017-10-21T21:10:35.058Z,83.13
2017-10-21T21:13:01.421Z,80.13
2017-10-21T21:15:28.612Z,63.17
2017-10-21T21:17:54.962Z,62.30
2017-10-21T21:20:21.300Z,58.37
2017-10-21T21:22:47.626Z,54.73
2017-10-21T21:25:13.992Z,55.17
2017-10-21T21:27:41.086Z,56.17
2017-10-21T21:30:07.679Z,51.20
2017-10-21T21:32:34.044Z,58.70
2017-10-21T21:35:00.451Z,53.70
2017-10-21T21:37:27.554Z,51.47
2017-10-21T21:39:53.864Z,41.70
2017-10-21T21:42:27.374Z,46.63
2017-10-21T21:44:53.728Z,44.63
2017-10-21T21:47:20.149Z,42.67
2017-10-21T21:49:46.504Z,49.53
2017-10-21T21:52:12.948Z,49.00
2017-10-21T21:54:39.307Z,45.23
2017-10-21T21:57:05.644Z,64.17
2017-10-21T21:59:32.031Z,45.07
2017-10-21T22:01:58.430Z,73.60
2017-10-21T22:04:24.790Z,50.07
2017-10-21T22:06:51.310Z,46.67
2017-10-21T22:09:20.766Z,44.90
2017-10-21T22:11:47.892Z,41.10
2017-10-21T22:14:14.268Z,40.97
2017-10-21T22:16:40.591Z,52.07
2017-10-21T22:19:06.918Z,48.33
2017-10-21T22:21:34.061Z,38.27
2017-10-21T22:24:01.984Z,42.53
2017-10-21T22:26:28.318Z,32.60
2017-10-21T22:28:54.590Z,55.17
2017-10-21T22:31:21.659Z,40.43
2017-10-21T22:33:48.086Z,41.50
2017-10-21T22:36:14.426Z,40.00
2017-10-21T22:38:40.790Z,40.43
2017-10-21T22:41:07.110Z,33.40
2017-10-21T22:43:33.528Z,37.13
2017-10-21T22:45:59.958Z,35.10
2017-10-21T22:48:26.292Z,44.93
2017-10-21T22:50:52.662Z,31.43
2017-10-21T22:53:19.073Z,32.23
2017-10-21T22:55:45.434Z,40.07
2017-10-21T22:58:11.759Z,34.50
2017-10-21T23:00:38.161Z,29.23
2017-10-21T23:03:04.595Z,42.87
2017-10-21T23:05:30.962Z,38.73
2017-10-21T23:07:57.284Z,40.30
2017-10-21T23:10:23.710Z,33.10
2017-10-21T23:12:50.006Z,36.43
2017-10-21T23:15:16.366Z,31.83
2017-10-21T23:17:42.728Z,34.60
2017-10-21T23:20:10.560Z,33.90
2017-10-21T23:22:36.891Z,34.60
2017-10-21T23:25:03.253Z,31.27
2017-10-21T23:27:29.611Z,31.53
2017-10-21T23:29:56.727Z,40.57
2017-10-21T23:32:23.070Z,34.60
2017-10-21T23:34:49.502Z,44.77
2017-10-21T23:37:17.318Z,38.30
2017-10-21T23:39:43.858Z,35.50
2017-10-21T23:42:10.174Z,39.93
2017-10-21T23:44:36.503Z,30.53
2017-10-21T23:47:02.982Z,38.00
2017-10-21T23:49:29.354Z,32.93
2017-10-21T23:51:56.455Z,38.10
2017-10-21T23:54:22.815Z,43.70
2017-10-21T23:56:49.233Z,27.40
2017-10-21T23:59:15.618Z,13.37
